createdAt,value
2023-03-19T00:00:31.492Z,8.58
2023-03-19T00:02:00.600Z,8.57
2023-03-19T00:03:31.469Z,8.47
2023-03-19T00:04:54.376Z,8.46
2023-03-19T00:06:21.357Z,8.50
2023-03-19T00:07:43.817Z,8.45
2023-03-19T00:09:07.320Z,8.33
2023-03-19T00:10:40.783Z,8.23
2023-03-19T00:12:12.237Z,8.45
2023-03-19T00:13:33.508Z,8.44
2023-03-19T00:15:27.542Z,8.43
2023-03-19T00:17:02.402Z,8.19
2023-03-19T00:18:23.523Z,8.39
2023-03-19T00:20:06.261Z,8.37
2023-03-19T00:21:30.815Z,8.35
2023-03-19T00:22:53.245Z,8.15
2023-03-19T00:24:17.675Z,8.05
2023-03-19T00:25:39.730Z,8.13
2023-03-19T00:27:03.925Z,8.30
2023-03-19T00:28:27.477Z,8.24
2023-03-19T00:29:52.740Z,8.22
2023-03-19T00:31:21.770Z,8.27
2023-03-19T00:32:47.423Z,8.23
2023-03-19T00:34:10.612Z,8.06
2023-03-19T00:35:32.121Z,8.20
2023-03-19T00:36:56.546Z,8.19
2023-03-19T00:38:18.045Z,8.05
2023-03-19T00:39:43.076Z,7.98
2023-03-19T00:41:06.143Z,7.97
2023-03-19T00:42:34.165Z,8.15
2023-03-19T00:43:57.409Z,7.98
2023-03-19T00:45:42.317Z,8.12
2023-03-19T00:47:08.250Z,8.09
2023-03-19T00:48:30.499Z,7.95
2023-03-19T00:49:52.713Z,7.86
2023-03-19T00:51:14.780Z,7.84
2023-03-19T00:52:43.359Z,7.99
2023-03-19T00:54:05.019Z,7.99
2023-03-19T00:55:27.612Z,8.04
2023-03-19T00:56:53.756Z,7.89
2023-03-19T00:58:16.204Z,7.89
2023-03-19T00:59:38.345Z,8.01
2023-03-19T01:00:59.540Z,7.90
2023-03-19T01:02:24.892Z,7.80
2023-03-19T01:03:50.243Z,7.96
2023-03-19T01:05:17.545Z,7.93
2023-03-19T01:06:40.025Z,7.93
2023-03-19T01:08:03.015Z,7.79
2023-03-19T01:09:25.795Z,7.81
2023-03-19T01:10:47.573Z,7.90
2023-03-19T01:12:10.509Z,7.71
2023-03-19T01:13:32.551Z,7.80
2023-03-19T01:15:01.170Z,7.71
2023-03-19T01:16:23.798Z,7.83
2023-03-19T01:17:45.984Z,7.64
2023-03-19T01:19:10.055Z,7.72
2023-03-19T01:20:31.984Z,7.66
2023-03-19T01:21:54.830Z,7.64
2023-03-19T01:23:19.934Z,7.63
2023-03-19T01:24:43.320Z,7.58
2023-03-19T01:26:06.034Z,7.45
2023-03-19T01:27:27.163Z,7.46
2023-03-19T01:28:50.616Z,7.68
2023-03-19T01:30:14.671Z,7.57
2023-03-19T01:31:56.475Z,7.63
2023-03-19T01:33:35.125Z,7.49
2023-03-19T01:35:03.767Z,7.39
2023-03-19T01:36:26.684Z,7.58
2023-03-19T01:37:57.817Z,7.24
2023-03-19T01:39:28.989Z,7.54
2023-03-19T01:40:59.303Z,7.40
2023-03-19T01:42:23.848Z,7.44
2023-03-19T01:44:34.563Z,7.18
2023-03-19T01:46:44.996Z,7.45
2023-03-19T01:48:21.225Z,7.18
2023-03-19T01:49:59.745Z,7.42
2023-03-19T01:51:26.840Z,7.35
2023-03-19T01:52:48.504Z,7.32
2023-03-19T01:54:30.647Z,7.18
2023-03-19T01:56:14.308Z,7.07
2023-03-19T01:57:50.254Z,7.33
2023-03-19T01:59:41.813Z,7.08
2023-03-19T02:01:18.181Z,7.28
2023-03-19T02:02:47.835Z,7.27
2023-03-19T02:04:28.184Z,7.12
2023-03-19T02:05:54.204Z,6.98
2023-03-19T02:07:21.632Z,6.98
2023-03-19T02:08:45.656Z,6.95
2023-03-19T02:10:13.337Z,7.10
2023-03-19T02:11:42.234Z,7.01
2023-03-19T02:13:03.900Z,7.16
2023-03-19T02:14:28.893Z,7.27
2023-03-19T02:15:52.309Z,7.27
2023-03-19T02:17:15.496Z,7.08
2023-03-19T02:18:38.584Z,7.07
2023-03-19T02:20:08.873Z,7.00
2023-03-19T02:21:31.772Z,7.17
2023-03-19T02:23:01.965Z,7.01
2023-03-19T02:24:33.910Z,7.19
2023-03-19T02:26:12.353Z,7.26
2023-03-19T02:27:34.817Z,7.17
2023-03-19T02:28:57.486Z,7.26
2023-03-19T02:30:29.499Z,7.05
2023-03-19T02:31:54.635Z,7.02
2023-03-19T02:33:20.470Z,7.23
2023-03-19T02:34:44.194Z,7.09
2023-03-19T02:36:11.166Z,7.26
2023-03-19T02:37:43.942Z,7.27
2023-03-19T02:39:09.228Z,7.01
2023-03-19T02:40:35.642Z,7.27
2023-03-19T02:41:59.625Z,7.19
2023-03-19T02:43:23.908Z,7.24
2023-03-19T02:44:52.491Z,7.21
2023-03-19T02:46:14.894Z,7.27
2023-03-19T02:47:39.260Z,7.14
2023-03-19T02:49:01.281Z,7.09
2023-03-19T02:50:22.210Z,7.24
2023-03-19T02:51:45.855Z,7.16
2023-03-19T02:53:08.728Z,7.23
2023-03-19T02:54:30.174Z,7.16
2023-03-19T02:55:57.066Z,7.26
2023-03-19T02:57:22.562Z,7.00
2023-03-19T02:58:45.714Z,7.24
2023-03-19T03:00:11.074Z,6.96
2023-03-19T03:01:36.053Z,7.09
2023-03-19T03:03:03.268Z,6.98
2023-03-19T03:04:24.318Z,7.08
2023-03-19T03:05:47.985Z,7.25
2023-03-19T03:07:09.383Z,7.27
2023-03-19T03:08:31.459Z,7.28
2023-03-19T03:09:57.903Z,7.25
2023-03-19T03:11:20.569Z,7.12
2023-03-19T03:12:48.204Z,7.09
2023-03-19T03:14:09.595Z,7.05
2023-03-19T03:15:31.923Z,7.10
2023-03-19T03:16:53.345Z,7.24
2023-03-19T03:18:15.739Z,7.19
2023-03-19T03:19:46.701Z,7.16
2023-03-19T03:21:20.230Z,6.97
2023-03-19T03:22:43.106Z,7.14
2023-03-19T03:24:05.088Z,6.91
2023-03-19T03:25:27.441Z,7.05
2023-03-19T03:26:49.749Z,6.86
2023-03-19T03:28:15.328Z,7.11
2023-03-19T03:29:37.142Z,6.98
2023-03-19T03:31:01.294Z,7.12
2023-03-19T03:32:24.086Z,6.88
2023-03-19T03:33:45.994Z,6.99
2023-03-19T03:35:09.437Z,6.94
2023-03-19T03:36:31.183Z,7.00
2023-03-19T03:37:53.575Z,7.10
2023-03-19T03:39:14.930Z,7.09
2023-03-19T03:40:37.672Z,7.09
2023-03-19T03:41:58.904Z,7.08
2023-03-19T03:43:23.521Z,6.83
2023-03-19T03:44:45.944Z,6.87
2023-03-19T03:46:09.297Z,7.06
2023-03-19T03:47:32.509Z,7.07
2023-03-19T03:48:55.016Z,6.89
2023-03-19T03:50:20.482Z,7.01
2023-03-19T03:51:44.387Z,7.01
2023-03-19T03:53:06.899Z,6.79
2023-03-19T03:54:29.217Z,6.84
2023-03-19T03:55:53.736Z,6.96
2023-03-19T03:57:19.435Z,6.94
2023-03-19T03:58:42.493Z,6.86
2023-03-19T04:00:06.058Z,6.82
2023-03-19T04:01:35.751Z,7.01
2023-03-19T04:02:59.425Z,6.81
2023-03-19T04:04:21.028Z,6.98
2023-03-19T04:05:44.661Z,6.98
2023-03-19T04:07:10.422Z,6.96
2023-03-19T04:08:43.273Z,6.82
2023-03-19T04:10:07.770Z,6.69
2023-03-19T04:11:29.773Z,6.64
2023-03-19T04:12:52.317Z,6.93
2023-03-19T04:14:14.709Z,6.79
2023-03-19T04:15:39.614Z,6.74
2023-03-19T04:17:02.363Z,6.61
2023-03-19T04:18:25.085Z,6.87
2023-03-19T04:19:47.841Z,6.64
2023-03-19T04:21:12.482Z,6.90
2023-03-19T04:22:35.059Z,6.68
2023-03-19T04:23:56.695Z,6.90
2023-03-19T04:25:19.249Z,6.75
2023-03-19T04:26:41.507Z,6.92
2023-03-19T04:28:13.579Z,6.73
2023-03-19T04:29:37.434Z,6.88
2023-03-19T04:31:02.894Z,6.81
2023-03-19T04:32:27.331Z,6.78
2023-03-19T04:33:50.865Z,6.81
2023-03-19T04:35:15.789Z,6.89
2023-03-19T04:36:38.694Z,6.91
2023-03-19T04:38:01.788Z,6.92
2023-03-19T04:39:23.381Z,6.61
2023-03-19T04:40:49.550Z,6.61
2023-03-19T04:42:12.707Z,6.71
2023-03-19T04:43:46.732Z,6.74
2023-03-19T04:45:11.305Z,6.82
2023-03-19T04:46:34.670Z,6.84
2023-03-19T04:47:58.329Z,6.84
2023-03-19T04:49:21.415Z,6.84
2023-03-19T04:50:45.858Z,6.78
2023-03-19T04:52:07.155Z,6.61
2023-03-19T04:53:29.263Z,6.81
2023-03-19T04:54:50.697Z,6.75
2023-03-19T04:56:16.319Z,6.79
2023-03-19T04:57:38.589Z,6.74
2023-03-19T04:59:01.610Z,6.75
2023-03-19T05:00:24.730Z,6.59
2023-03-19T05:01:49.945Z,6.48
2023-03-19T05:03:16.809Z,6.45
2023-03-19T05:04:40.300Z,6.63
2023-03-19T05:06:09.298Z,6.71
2023-03-19T05:07:31.106Z,6.58
2023-03-19T05:08:56.116Z,6.75
2023-03-19T05:10:20.718Z,6.50
2023-03-19T05:11:48.384Z,6.50
2023-03-19T05:13:18.425Z,6.53
2023-03-19T05:14:45.740Z,6.49
2023-03-19T05:16:29.775Z,6.54
2023-03-19T05:17:52.514Z,6.80
2023-03-19T05:19:16.706Z,6.78
2023-03-19T05:20:39.016Z,6.86
2023-03-19T05:22:06.585Z,6.87
2023-03-19T05:23:29.478Z,6.78
2023-03-19T05:25:00.059Z,6.92
2023-03-19T05:26:22.774Z,6.80
2023-03-19T05:28:04.061Z,6.82
2023-03-19T05:29:27.269Z,6.98
2023-03-19T05:31:14.077Z,6.81
2023-03-19T05:32:43.254Z,6.76
2023-03-19T05:34:13.637Z,6.81
2023-03-19T05:35:42.923Z,6.93
2023-03-19T05:37:22.151Z,6.79
2023-03-19T05:38:49.637Z,6.94
2023-03-19T05:40:19.745Z,7.03
2023-03-19T05:41:43.858Z,6.98
2023-03-19T05:43:06.981Z,7.09
2023-03-19T05:44:50.127Z,6.88
2023-03-19T05:46:25.353Z,6.89
2023-03-19T05:47:50.585Z,6.88
2023-03-19T05:49:14.117Z,7.01
2023-03-19T05:50:37.261Z,7.21
2023-03-19T05:52:09.335Z,7.06
2023-03-19T05:53:35.320Z,7.15
2023-03-19T05:55:17.865Z,7.17
2023-03-19T05:56:44.449Z,7.42
2023-03-19T05:58:39.266Z,7.22
2023-03-19T06:00:02.345Z,7.58
2023-03-19T06:01:36.264Z,7.68
2023-03-19T06:03:07.379Z,7.50
2023-03-19T06:04:40.422Z,7.82
2023-03-19T06:06:11.416Z,8.03
2023-03-19T06:07:59.121Z,8.17
2023-03-19T06:09:50.591Z,8.29
2023-03-19T06:11:15.956Z,8.06
2023-03-19T06:12:44.964Z,8.19
2023-03-19T06:14:47.411Z,8.32
2023-03-19T06:16:32.928Z,8.56
2023-03-19T06:18:13.277Z,8.86
2023-03-19T06:19:42.419Z,9.01
2023-03-19T06:21:05.008Z,8.93
2023-03-19T06:22:27.465Z,9.16
2023-03-19T06:23:52.560Z,9.24
2023-03-19T06:25:22.096Z,9.41
2023-03-19T06:26:47.189Z,9.44
2023-03-19T06:28:10.540Z,9.46
2023-03-19T06:29:37.747Z,9.59
2023-03-19T06:31:22.629Z,9.75
2023-03-19T06:33:05.269Z,9.91
2023-03-19T06:34:30.488Z,10.00
2023-03-19T06:36:09.164Z,9.95
2023-03-19T06:37:39.559Z,10.01
2023-03-19T06:39:03.381Z,10.23
2023-03-19T06:40:26.750Z,10.32
2023-03-19T06:41:47.739Z,10.41
2023-03-19T06:43:14.311Z,10.42
2023-03-19T06:44:36.673Z,10.61
2023-03-19T06:45:58.774Z,10.69
2023-03-19T06:47:21.306Z,10.79
2023-03-19T06:48:43.791Z,10.89
2023-03-19T06:50:08.684Z,10.87
2023-03-19T06:51:35.249Z,11.06
2023-03-19T06:52:58.662Z,11.18
2023-03-19T06:54:20.708Z,11.29
2023-03-19T06:55:44.712Z,11.40
2023-03-19T06:57:07.099Z,11.50
2023-03-19T06:58:29.468Z,11.58
2023-03-19T06:59:51.945Z,11.64
2023-03-19T07:01:14.463Z,11.72
2023-03-19T07:02:37.083Z,11.79
2023-03-19T07:03:57.981Z,11.86
2023-03-19T07:05:20.382Z,11.90
2023-03-19T07:06:44.348Z,11.95
2023-03-19T07:08:12.110Z,11.85
2023-03-19T07:09:34.249Z,12.14
2023-03-19T07:10:58.523Z,12.22
2023-03-19T07:12:20.986Z,12.34
2023-03-19T07:13:43.603Z,12.44
2023-03-19T07:15:06.759Z,12.53
2023-03-19T07:16:27.716Z,12.69
2023-03-19T07:17:50.370Z,12.77
2023-03-19T07:19:12.667Z,12.91
2023-03-19T07:20:34.128Z,13.02
2023-03-19T07:21:58.353Z,13.19
2023-03-19T07:23:20.711Z,13.31
2023-03-19T07:24:42.870Z,13.44
2023-03-19T07:26:05.155Z,13.55
2023-03-19T07:27:27.085Z,13.69
2023-03-19T07:28:48.737Z,13.85
2023-03-19T07:30:12.409Z,13.97
2023-03-19T07:31:34.845Z,14.13
2023-03-19T07:32:57.142Z,14.28
2023-03-19T07:34:18.614Z,14.42
2023-03-19T07:35:39.761Z,14.64
2023-03-19T07:37:03.134Z,14.93
2023-03-19T07:38:25.130Z,15.10
2023-03-19T07:39:46.161Z,15.02
2023-03-19T07:41:08.359Z,15.05
2023-03-19T07:42:30.278Z,15.24
2023-03-19T07:43:52.294Z,15.43
2023-03-19T07:45:14.497Z,15.69
2023-03-19T07:46:36.453Z,15.88
2023-03-19T07:47:58.181Z,16.05
2023-03-19T07:49:20.669Z,16.11
2023-03-19T07:50:43.018Z,16.19
2023-03-19T07:52:06.882Z,16.30
2023-03-19T07:53:28.924Z,16.44
2023-03-19T07:54:52.490Z,16.49
2023-03-19T07:56:14.603Z,16.69
2023-03-19T07:57:36.861Z,16.85
2023-03-19T07:58:59.787Z,17.04
2023-03-19T08:00:25.415Z,17.19
2023-03-19T08:01:47.734Z,17.31
2023-03-19T08:03:10.263Z,17.36
2023-03-19T08:04:32.230Z,17.27
2023-03-19T08:05:54.062Z,17.21
2023-03-19T08:07:17.135Z,17.14
2023-03-19T08:08:39.533Z,17.26
2023-03-19T08:10:01.191Z,17.30
2023-03-19T08:11:24.304Z,17.34
2023-03-19T08:12:46.762Z,17.40
2023-03-19T08:14:09.203Z,17.48
2023-03-19T08:15:31.734Z,17.56
2023-03-19T08:16:53.932Z,17.52
2023-03-19T08:18:16.961Z,18.04
2023-03-19T08:19:39.322Z,18.33
2023-03-19T08:21:01.700Z,18.63
2023-03-19T08:22:25.465Z,18.92
2023-03-19T08:23:47.924Z,19.13
2023-03-19T08:25:10.744Z,19.63
2023-03-19T08:26:33.714Z,19.90
2023-03-19T08:27:56.403Z,20.07
2023-03-19T08:29:19.275Z,20.13
2023-03-19T08:30:41.570Z,20.06
2023-03-19T08:32:03.157Z,20.11
2023-03-19T08:33:25.752Z,20.28
2023-03-19T08:34:49.699Z,20.54
2023-03-19T08:36:14.277Z,20.70
2023-03-19T08:37:38.018Z,20.89
2023-03-19T08:39:00.691Z,21.34
2023-03-19T08:40:22.421Z,21.83
2023-03-19T08:41:44.768Z,22.37
2023-03-19T08:43:07.814Z,22.86
2023-03-19T08:44:30.126Z,23.27
2023-03-19T08:45:52.089Z,23.78
2023-03-19T08:47:14.726Z,24.20
2023-03-19T08:48:50.986Z,24.51
2023-03-19T08:50:47.970Z,25.01
2023-03-19T08:52:15.366Z,25.63
2023-03-19T08:53:40.130Z,26.73
2023-03-19T08:55:02.540Z,28.29
2023-03-19T08:56:25.433Z,28.99
2023-03-19T08:57:47.451Z,29.02
2023-03-19T08:59:10.038Z,29.04
2023-03-19T09:00:32.197Z,28.92
2023-03-19T09:01:55.480Z,29.12
2023-03-19T09:03:19.219Z,28.76
2023-03-19T09:04:42.507Z,28.68
2023-03-19T09:06:07.113Z,28.65
2023-03-19T09:07:29.241Z,28.26
2023-03-19T09:08:52.188Z,28.26
2023-03-19T09:10:14.430Z,27.93
2023-03-19T09:11:36.573Z,27.56
2023-03-19T09:12:58.918Z,27.45
2023-03-19T09:14:23.206Z,27.28
2023-03-19T09:15:45.298Z,26.94
2023-03-19T09:17:08.253Z,26.42
2023-03-19T09:18:31.205Z,25.97
2023-03-19T09:19:53.305Z,25.57
2023-03-19T09:21:15.400Z,25.85
2023-03-19T09:22:37.675Z,25.93
2023-03-19T09:24:01.352Z,25.91
2023-03-19T09:25:23.836Z,25.66
2023-03-19T09:26:46.212Z,25.42
2023-03-19T09:28:08.741Z,25.35
2023-03-19T09:29:31.550Z,25.44
2023-03-19T09:30:54.215Z,25.84
2023-03-19T09:32:16.678Z,26.38
2023-03-19T09:33:38.840Z,27.13
2023-03-19T09:35:00.866Z,27.37
2023-03-19T09:36:23.322Z,27.07
2023-03-19T09:37:45.942Z,26.53
2023-03-19T09:39:10.070Z,26.06
2023-03-19T09:40:38.310Z,25.64
2023-03-19T09:42:17.133Z,25.30
2023-03-19T09:43:58.285Z,24.97
2023-03-19T09:45:21.475Z,24.74
2023-03-19T09:46:48.469Z,24.54
2023-03-19T09:48:18.293Z,24.43
2023-03-19T09:49:45.012Z,24.51
2023-03-19T09:51:10.695Z,24.87
2023-03-19T09:52:43.354Z,26.48
2023-03-19T09:54:20.356Z,27.86
2023-03-19T09:55:47.020Z,28.88
2023-03-19T09:57:13.213Z,29.16
2023-03-19T09:58:38.577Z,29.14
2023-03-19T10:00:07.121Z,28.58
2023-03-19T10:01:35.801Z,28.38
2023-03-19T10:03:08.288Z,28.32
2023-03-19T10:04:43.885Z,28.28
2023-03-19T10:06:20.248Z,28.27
2023-03-19T10:07:56.991Z,28.35
2023-03-19T10:09:46.131Z,28.43
2023-03-19T10:11:29.939Z,28.44
2023-03-19T10:13:01.464Z,28.44
2023-03-19T10:14:49.490Z,28.34
2023-03-19T10:16:26.803Z,28.50
2023-03-19T10:17:58.821Z,28.48
2023-03-19T10:19:26.615Z,28.49
2023-03-19T10:20:56.844Z,28.33
2023-03-19T10:22:23.398Z,28.18
2023-03-19T10:23:50.203Z,27.90
2023-03-19T10:25:20.340Z,27.88
2023-03-19T10:26:43.565Z,27.73
2023-03-19T10:28:16.450Z,27.37
2023-03-19T10:29:39.340Z,27.07
2023-03-19T10:31:15.272Z,26.61
2023-03-19T10:32:42.521Z,26.20
2023-03-19T10:34:21.270Z,25.82
2023-03-19T10:35:46.400Z,25.42
2023-03-19T10:37:16.635Z,25.14
2023-03-19T10:38:42.612Z,25.00
2023-03-19T10:40:12.853Z,24.96
2023-03-19T10:41:51.363Z,24.88
2023-03-19T10:43:19.923Z,25.13
2023-03-19T10:44:50.262Z,25.08
2023-03-19T10:46:15.973Z,24.85
2023-03-19T10:47:41.801Z,24.61
2023-03-19T10:49:04.331Z,24.48
2023-03-19T10:50:31.766Z,24.39
2023-03-19T10:51:54.273Z,24.25
2023-03-19T10:53:32.364Z,24.07
2023-03-19T10:54:58.060Z,23.94
2023-03-19T10:56:23.274Z,23.83
2023-03-19T10:57:50.743Z,23.73
2023-03-19T10:59:28.000Z,23.57
2023-03-19T11:00:58.091Z,23.47
2023-03-19T11:02:23.401Z,23.32
2023-03-19T11:03:53.328Z,23.12
2023-03-19T11:05:26.077Z,22.98
2023-03-19T11:06:51.237Z,22.84
2023-03-19T11:08:35.010Z,22.73
2023-03-19T11:09:58.128Z,22.54
2023-03-19T11:11:28.280Z,22.39
2023-03-19T11:12:56.563Z,22.24
2023-03-19T11:14:20.979Z,22.01
2023-03-19T11:15:43.547Z,22.02
2023-03-19T11:17:08.951Z,21.88
2023-03-19T11:18:37.505Z,21.77
2023-03-19T11:20:01.122Z,21.56
2023-03-19T11:21:26.217Z,21.47
2023-03-19T11:22:51.714Z,21.41
2023-03-19T11:24:14.690Z,21.33
2023-03-19T11:25:40.839Z,21.28
2023-03-19T11:27:03.704Z,21.24
2023-03-19T11:28:33.782Z,21.22
2023-03-19T11:29:55.158Z,21.27
2023-03-19T11:31:25.622Z,21.28
2023-03-19T11:33:23.998Z,21.38
2023-03-19T11:34:54.095Z,21.51
2023-03-19T11:36:24.269Z,21.54
2023-03-19T11:37:55.998Z,21.58
2023-03-19T11:39:28.661Z,21.57
2023-03-19T11:41:02.254Z,21.58
2023-03-19T11:42:47.878Z,21.43
2023-03-19T11:44:18.156Z,21.38
2023-03-19T11:45:50.840Z,21.30
2023-03-19T11:47:27.099Z,21.22
2023-03-19T11:49:17.430Z,21.14
2023-03-19T11:50:48.295Z,21.16
2023-03-19T11:52:21.341Z,21.14
2023-03-19T11:54:00.486Z,21.11
2023-03-19T11:55:33.007Z,21.05
2023-03-19T11:57:02.395Z,20.94
2023-03-19T11:58:59.453Z,20.80
2023-03-19T12:00:33.339Z,20.77
2023-03-19T12:02:30.742Z,20.65
2023-03-19T12:04:11.221Z,20.58
2023-03-19T12:05:37.443Z,20.39
2023-03-19T12:07:08.683Z,20.26
2023-03-19T12:08:38.943Z,20.07
2023-03-19T12:10:18.702Z,19.90
2023-03-19T12:11:54.269Z,19.72
2023-03-19T12:13:32.282Z,19.56
2023-03-19T12:15:06.681Z,19.54
2023-03-19T12:16:46.562Z,19.39
2023-03-19T12:18:19.398Z,19.48
2023-03-19T12:20:12.870Z,19.50
2023-03-19T12:21:47.713Z,19.47
2023-03-19T12:23:21.707Z,19.62
2023-03-19T12:25:05.245Z,19.64
2023-03-19T12:26:33.455Z,19.66
2023-03-19T12:28:01.877Z,19.67
2023-03-19T12:29:32.033Z,19.78
2023-03-19T12:31:08.394Z,19.84
2023-03-19T12:32:54.210Z,19.86
2023-03-19T12:34:26.155Z,19.88
2023-03-19T12:35:51.910Z,19.89
2023-03-19T12:37:21.685Z,19.89
2023-03-19T12:38:52.406Z,19.89
2023-03-19T12:40:27.345Z,19.82
2023-03-19T12:42:06.669Z,19.82
2023-03-19T12:43:35.121Z,19.77
2023-03-19T12:45:00.244Z,19.73
2023-03-19T12:46:28.709Z,19.70
2023-03-19T12:47:58.621Z,19.64
2023-03-19T12:49:26.556Z,19.61
2023-03-19T12:50:54.927Z,19.55
2023-03-19T12:52:23.992Z,19.47
2023-03-19T12:53:55.517Z,19.42
2023-03-19T12:55:22.094Z,19.33
2023-03-19T12:56:51.094Z,19.27
2023-03-19T12:58:22.255Z,19.09
2023-03-19T12:59:53.243Z,19.12
2023-03-19T13:01:22.408Z,19.04
2023-03-19T13:02:49.254Z,18.95
2023-03-19T13:04:19.424Z,18.99
2023-03-19T13:05:46.090Z,18.99
2023-03-19T13:07:15.085Z,18.94
2023-03-19T13:08:45.116Z,18.97
2023-03-19T13:10:11.029Z,18.96
2023-03-19T13:11:42.576Z,18.90
2023-03-19T13:13:14.373Z,18.89
2023-03-19T13:14:48.490Z,18.90
2023-03-19T13:16:23.131Z,18.95
2023-03-19T13:17:58.495Z,19.00
2023-03-19T13:19:30.673Z,19.01
2023-03-19T13:21:05.894Z,19.03
2023-03-19T13:22:32.217Z,19.08
2023-03-19T13:24:06.444Z,19.07
2023-03-19T13:25:34.767Z,19.06
2023-03-19T13:27:01.110Z,19.05
2023-03-19T13:28:29.618Z,18.98
2023-03-19T13:30:07.839Z,18.86
2023-03-19T13:31:35.247Z,18.78
2023-03-19T13:33:05.180Z,18.77
2023-03-19T13:34:30.450Z,18.65
2023-03-19T13:35:53.810Z,18.65
2023-03-19T13:37:19.812Z,18.59
2023-03-19T13:38:46.334Z,18.54
2023-03-19T13:40:42.720Z,18.45
2023-03-19T13:42:20.193Z,18.30
2023-03-19T13:43:44.446Z,18.37
2023-03-19T13:45:51.403Z,18.30
2023-03-19T13:47:39.906Z,18.23
2023-03-19T13:49:33.756Z,18.20
2023-03-19T13:51:01.969Z,18.16
2023-03-19T13:52:49.754Z,18.08
2023-03-19T13:54:18.869Z,18.08
2023-03-19T13:55:52.516Z,18.05
2023-03-19T13:57:37.206Z,18.13
2023-03-19T13:59:25.393Z,18.15
2023-03-19T14:01:01.470Z,18.18
2023-03-19T14:02:54.544Z,18.20
2023-03-19T14:04:23.884Z,18.25
2023-03-19T14:05:49.806Z,18.26
2023-03-19T14:07:19.226Z,18.29
2023-03-19T14:08:47.828Z,18.28
2023-03-19T14:10:18.759Z,18.31
2023-03-19T14:11:41.695Z,18.33
2023-03-19T14:13:08.712Z,18.34
2023-03-19T14:14:32.171Z,18.29
2023-03-19T14:16:07.261Z,18.27
2023-03-19T14:17:35.158Z,18.35
2023-03-19T14:19:01.248Z,18.28
2023-03-19T14:20:39.323Z,18.34
2023-03-19T14:22:20.166Z,18.16
2023-03-19T14:23:46.809Z,18.19
2023-03-19T14:25:18.756Z,18.26
2023-03-19T14:26:44.815Z,18.15
2023-03-19T14:28:10.869Z,18.21
2023-03-19T14:29:36.506Z,18.25
2023-03-19T14:31:00.538Z,18.13
2023-03-19T14:32:31.579Z,18.16
2023-03-19T14:33:59.840Z,18.12
2023-03-19T14:35:26.524Z,18.23
2023-03-19T14:36:58.028Z,18.25
2023-03-19T14:38:33.452Z,17.99
2023-03-19T14:40:04.628Z,18.16
2023-03-19T14:41:32.486Z,18.07
2023-03-19T14:43:06.715Z,18.05
2023-03-19T14:44:46.028Z,17.98
2023-03-19T14:46:23.455Z,17.90
2023-03-19T14:48:08.415Z,17.85
2023-03-19T14:49:54.150Z,17.67
2023-03-19T14:51:39.836Z,17.79
2023-03-19T14:53:07.166Z,17.76
2023-03-19T14:54:37.446Z,17.74
2023-03-19T14:56:11.750Z,17.74
2023-03-19T14:57:37.420Z,17.72
2023-03-19T14:59:03.925Z,17.71
2023-03-19T15:00:26.446Z,17.67
2023-03-19T15:01:53.024Z,17.64
2023-03-19T15:03:23.116Z,17.65
2023-03-19T15:04:47.376Z,17.65
2023-03-19T15:06:13.756Z,17.63
2023-03-19T15:07:41.138Z,17.59
2023-03-19T15:09:11.495Z,17.44
2023-03-19T15:10:49.512Z,17.59
2023-03-19T15:12:31.430Z,17.57
2023-03-19T15:14:14.977Z,17.58
2023-03-19T15:15:44.546Z,17.58
2023-03-19T15:17:15.678Z,17.60
2023-03-19T15:18:39.291Z,17.59
2023-03-19T15:20:03.718Z,17.62
2023-03-19T15:21:29.755Z,17.44
2023-03-19T15:22:56.478Z,17.57
2023-03-19T15:24:19.409Z,17.56
2023-03-19T15:25:51.907Z,17.58
2023-03-19T15:27:24.521Z,17.56
2023-03-19T15:28:49.695Z,17.56
2023-03-19T15:30:22.267Z,17.52
2023-03-19T15:31:52.356Z,17.51
2023-03-19T15:33:37.307Z,17.43
2023-03-19T15:35:06.354Z,17.40
2023-03-19T15:36:37.940Z,17.32
2023-03-19T15:38:03.863Z,17.01
2023-03-19T15:39:48.763Z,17.25
2023-03-19T15:41:20.877Z,17.14
2023-03-19T15:42:45.055Z,17.13
2023-03-19T15:44:20.697Z,16.84
2023-03-19T15:45:47.637Z,16.99
2023-03-19T15:47:16.974Z,16.81
2023-03-19T15:48:45.968Z,16.67
2023-03-19T15:50:14.091Z,16.83
2023-03-19T15:51:37.323Z,16.61
2023-03-19T15:53:02.294Z,16.72
2023-03-19T15:54:25.466Z,16.65
2023-03-19T15:55:51.479Z,16.58
2023-03-19T15:57:18.385Z,16.51
2023-03-19T15:58:44.464Z,16.44
2023-03-19T16:00:11.674Z,16.34
2023-03-19T16:01:37.794Z,16.21
2023-03-19T16:03:00.187Z,16.19
2023-03-19T16:04:30.136Z,16.09
2023-03-19T16:06:00.116Z,15.90
2023-03-19T16:07:28.209Z,15.83
2023-03-19T16:08:53.631Z,15.86
2023-03-19T16:10:38.405Z,15.77
2023-03-19T16:12:01.929Z,15.71
2023-03-19T16:13:37.740Z,15.58
2023-03-19T16:15:00.412Z,15.54
2023-03-19T16:16:25.114Z,15.26
2023-03-19T16:17:49.424Z,15.47
2023-03-19T16:19:29.848Z,15.40
2023-03-19T16:21:02.120Z,15.19
2023-03-19T16:22:26.888Z,15.10
2023-03-19T16:23:56.175Z,15.31
2023-03-19T16:25:20.240Z,15.28
2023-03-19T16:26:44.757Z,15.10
2023-03-19T16:28:08.003Z,15.25
2023-03-19T16:29:35.849Z,15.11
2023-03-19T16:30:58.656Z,15.23
2023-03-19T16:32:23.586Z,15.10
2023-03-19T16:33:46.596Z,14.94
2023-03-19T16:35:14.934Z,15.17
2023-03-19T16:36:38.238Z,15.01
2023-03-19T16:38:13.778Z,15.08
2023-03-19T16:39:37.823Z,15.12
2023-03-19T16:41:18.529Z,14.93
2023-03-19T16:42:42.084Z,14.99
2023-03-19T16:44:17.058Z,14.83
2023-03-19T16:45:42.647Z,14.76
2023-03-19T16:47:12.234Z,14.86
2023-03-19T16:48:34.413Z,14.76
2023-03-19T16:49:56.854Z,14.94
2023-03-19T16:51:21.652Z,14.92
2023-03-19T16:52:44.300Z,14.69
2023-03-19T16:54:06.537Z,14.75
2023-03-19T16:55:32.271Z,14.84
2023-03-19T16:56:55.504Z,14.81
2023-03-19T16:58:20.463Z,14.74
2023-03-19T16:59:43.173Z,14.57
2023-03-19T17:01:16.142Z,14.67
2023-03-19T17:02:38.457Z,14.68
2023-03-19T17:04:01.799Z,14.57
2023-03-19T17:05:25.653Z,14.58
2023-03-19T17:06:59.402Z,14.40
2023-03-19T17:08:26.378Z,14.37
2023-03-19T17:09:48.362Z,14.39
2023-03-19T17:11:19.820Z,14.46
2023-03-19T17:12:46.603Z,14.42
2023-03-19T17:14:14.668Z,14.38
2023-03-19T17:15:40.372Z,14.25
2023-03-19T17:17:04.898Z,14.21
2023-03-19T17:18:29.634Z,14.25
2023-03-19T17:19:52.094Z,14.23
2023-03-19T17:21:17.486Z,14.18
2023-03-19T17:22:39.881Z,14.05
2023-03-19T17:24:05.830Z,14.09
2023-03-19T17:25:28.514Z,14.05
2023-03-19T17:26:50.792Z,14.03
2023-03-19T17:28:13.120Z,13.97
2023-03-19T17:29:39.936Z,13.96
2023-03-19T17:31:04.177Z,13.92
2023-03-19T17:32:29.113Z,13.81
2023-03-19T17:33:57.425Z,13.63
2023-03-19T17:35:23.755Z,13.65
2023-03-19T17:36:52.661Z,13.77
2023-03-19T17:38:20.198Z,13.69
2023-03-19T17:39:43.502Z,13.60
2023-03-19T17:41:14.276Z,13.67
2023-03-19T17:42:37.583Z,13.62
2023-03-19T17:44:01.534Z,13.60
2023-03-19T17:45:27.929Z,13.58
2023-03-19T17:46:53.136Z,13.51
2023-03-19T17:48:22.704Z,13.52
2023-03-19T17:49:45.870Z,13.49
2023-03-19T17:51:08.465Z,13.44
2023-03-19T17:52:31.060Z,13.41
2023-03-19T17:53:55.593Z,13.42
2023-03-19T17:55:19.737Z,13.39
2023-03-19T17:56:44.455Z,13.38
2023-03-19T17:58:06.979Z,13.32
2023-03-19T17:59:29.022Z,13.34
2023-03-19T18:00:52.883Z,13.26
2023-03-19T18:02:33.457Z,13.27
2023-03-19T18:03:59.448Z,13.24
2023-03-19T18:05:24.012Z,13.27
2023-03-19T18:06:49.928Z,13.26
2023-03-19T18:08:15.719Z,13.22
2023-03-19T18:09:38.171Z,13.22
2023-03-19T18:11:00.012Z,13.22
2023-03-19T18:12:21.884Z,13.18
2023-03-19T18:13:44.664Z,13.19
2023-03-19T18:15:08.107Z,13.19
2023-03-19T18:16:33.277Z,13.11
2023-03-19T18:17:56.994Z,13.14
2023-03-19T18:19:27.408Z,13.14
2023-03-19T18:20:50.128Z,13.12
2023-03-19T18:22:14.426Z,13.09
2023-03-19T18:23:36.736Z,13.06
2023-03-19T18:24:59.393Z,13.06
2023-03-19T18:26:24.968Z,13.05
2023-03-19T18:27:49.234Z,13.04
2023-03-19T18:29:11.774Z,13.01
2023-03-19T18:30:53.634Z,12.97
2023-03-19T18:32:24.982Z,13.00
2023-03-19T18:33:53.891Z,12.99
2023-03-19T18:35:20.078Z,12.98
2023-03-19T18:36:43.829Z,12.69
2023-03-19T18:38:13.669Z,12.68
2023-03-19T18:39:39.240Z,12.87
2023-03-19T18:41:15.860Z,12.74
2023-03-19T18:42:40.131Z,12.71
2023-03-19T18:44:05.109Z,12.78
2023-03-19T18:45:38.517Z,12.78
2023-03-19T18:47:17.686Z,12.74
2023-03-19T18:48:48.598Z,12.82
2023-03-19T18:50:23.269Z,12.64
2023-03-19T18:52:01.138Z,12.77
2023-03-19T18:53:36.421Z,12.75
2023-03-19T18:54:58.853Z,12.52
2023-03-19T18:56:24.981Z,12.73
2023-03-19T18:57:56.531Z,12.59
2023-03-19T18:59:26.190Z,12.69
2023-03-19T19:00:58.306Z,12.54
2023-03-19T19:02:32.692Z,12.63
2023-03-19T19:03:55.763Z,12.58
2023-03-19T19:05:35.407Z,12.64